createdAt,value
2023-03-12T00:00:32.207Z,168.39
2023-03-12T00:01:30.406Z,171.33
2023-03-12T00:02:22.526Z,170.28
2023-03-12T00:03:17.810Z,169.76
2023-03-12T00:04:12.844Z,170.63
2023-03-12T00:05:08.044Z,174.55
2023-03-12T00:06:10.213Z,178.86
2023-03-12T00:06:59.308Z,182.78
2023-03-12T00:07:53.477Z,182.78
2023-03-12T00:08:48.533Z,185.83
2023-03-12T00:09:43.783Z,187.10
2023-03-12T00:10:38.855Z,189.81
2023-03-12T00:11:34.122Z,194.19
2023-03-12T00:12:29.296Z,196.75
2023-03-12T00:13:24.453Z,198.18
2023-03-12T00:14:19.520Z,197.23
2023-03-12T00:15:14.616Z,195.46
2023-03-12T00:16:09.786Z,198.06
2023-03-12T00:17:04.881Z,201.71
2023-03-12T00:17:59.969Z,200.24
2023-03-12T00:18:55.166Z,199.02
2023-03-12T00:19:50.238Z,201.71
2023-03-12T00:20:45.319Z,203.09
2023-03-12T00:21:40.572Z,202.21
2023-03-12T00:22:35.760Z,203.21
2023-03-12T00:23:30.882Z,200.60
2023-03-12T00:24:25.948Z,199.02
2023-03-12T00:25:21.091Z,198.30
2023-03-12T00:26:16.214Z,196.99
2023-03-12T00:27:11.326Z,195.93
2023-03-12T00:28:06.395Z,195.70
2023-03-12T00:29:01.600Z,198.78
2023-03-12T00:29:56.825Z,201.34
2023-03-12T00:30:52.002Z,204.73
2023-03-12T00:31:47.254Z,206.41
2023-03-12T00:32:42.485Z,197.94
2023-03-12T00:33:37.530Z,194.77
2023-03-12T00:34:32.817Z,196.63
2023-03-12T00:35:27.986Z,196.87
2023-03-12T00:36:23.281Z,199.26
2023-03-12T00:37:18.423Z,201.09
2023-03-12T00:38:13.578Z,203.09
2023-03-12T00:39:08.723Z,204.99
2023-03-12T00:40:04.064Z,208.24
2023-03-12T00:40:59.252Z,208.11
2023-03-12T00:41:54.507Z,210.65
2023-03-12T00:42:49.627Z,212.28
2023-03-12T00:43:44.823Z,211.33
2023-03-12T00:44:39.926Z,210.51
2023-03-12T00:45:35.140Z,209.44
2023-03-12T00:46:30.459Z,211.33
2023-03-12T00:47:25.498Z,211.46
2023-03-12T00:48:20.705Z,210.78
2023-03-12T00:49:15.982Z,209.44
2023-03-12T00:50:11.124Z,210.24
2023-03-12T00:51:06.519Z,209.84
2023-03-12T00:52:01.380Z,209.17
2023-03-12T00:52:56.791Z,211.05
2023-03-12T00:53:51.826Z,211.33
2023-03-12T00:54:46.959Z,211.87
2023-03-12T00:55:42.316Z,213.53
2023-03-12T00:56:37.301Z,213.11
2023-03-12T00:57:32.432Z,212.15
2023-03-12T00:58:27.631Z,213.53
2023-03-12T00:59:22.754Z,210.24
2023-03-12T01:00:18.093Z,209.97
2023-03-12T01:01:13.449Z,210.38
2023-03-12T01:02:08.476Z,211.60
2023-03-12T01:03:03.717Z,209.71
2023-03-12T01:03:59.044Z,176.96
2023-03-12T01:04:54.078Z,171.68
2023-03-12T01:05:49.425Z,178.48
2023-03-12T01:06:44.414Z,182.78
2023-03-12T01:07:39.674Z,192.26
2023-03-12T01:08:34.816Z,199.51
2023-03-12T01:09:30.107Z,202.71
2023-03-12T01:10:25.288Z,204.61
2023-03-12T01:11:20.653Z,208.64
2023-03-12T01:12:15.634Z,211.74
2023-03-12T01:13:11.052Z,210.92
2023-03-12T01:14:06.082Z,212.01
2023-03-12T01:15:01.210Z,209.97
2023-03-12T01:15:56.484Z,209.57
2023-03-12T01:16:52.640Z,209.44
2023-03-12T01:17:46.788Z,211.46
2023-03-12T01:18:41.958Z,211.05
2023-03-12T01:19:37.104Z,212.56
2023-03-12T01:20:32.551Z,213.67
2023-03-12T01:21:27.601Z,215.77
2023-03-12T01:22:22.850Z,217.35
2023-03-12T01:23:18.114Z,219.97
2023-03-12T01:24:13.288Z,222.05
2023-03-12T01:25:08.403Z,226.81
2023-03-12T01:26:03.749Z,229.51
2023-03-12T01:26:58.738Z,231.29
2023-03-12T01:27:54.016Z,232.60
2023-03-12T01:28:49.203Z,232.93
2023-03-12T01:29:44.482Z,232.27
2023-03-12T01:30:39.649Z,230.48
2023-03-12T01:31:34.850Z,226.65
2023-03-12T01:32:30.013Z,225.56
2023-03-12T01:33:25.300Z,225.56
2023-03-12T01:34:20.304Z,225.25
2023-03-12T01:35:15.533Z,224.18
2023-03-12T01:36:10.709Z,223.87
2023-03-12T01:37:05.820Z,223.26
2023-03-12T01:38:00.984Z,222.05
2023-03-12T01:38:56.114Z,221.90
2023-03-12T01:39:51.231Z,223.26
2023-03-12T01:40:46.683Z,226.18
2023-03-12T01:41:41.687Z,228.87
2023-03-12T01:42:36.976Z,227.44
2023-03-12T01:43:32.236Z,228.07
2023-03-12T01:44:27.267Z,227.44
2023-03-12T01:45:22.409Z,227.76
2023-03-12T01:46:17.566Z,228.87
2023-03-12T01:47:12.742Z,229.83
2023-03-12T01:48:07.871Z,230.15
2023-03-12T01:49:03.030Z,230.48
2023-03-12T01:49:58.193Z,230.48
2023-03-12T01:50:53.337Z,230.64
2023-03-12T01:51:48.524Z,230.31
2023-03-12T01:52:43.657Z,229.83
2023-03-12T01:53:38.937Z,226.50
2023-03-12T01:54:33.953Z,226.65
2023-03-12T01:55:29.323Z,225.10
2023-03-12T01:56:24.473Z,224.18
2023-03-12T01:57:19.754Z,224.02
2023-03-12T01:58:14.873Z,223.11
2023-03-12T01:59:10.046Z,220.71
2023-03-12T02:00:05.152Z,219.38
2023-03-12T02:01:00.558Z,215.35
2023-03-12T02:01:55.673Z,215.21
2023-03-12T02:02:50.833Z,215.21
2023-03-12T02:03:46.085Z,215.91
2023-03-12T02:04:41.251Z,219.23
2023-03-12T02:05:36.420Z,219.67
2023-03-12T02:06:31.592Z,223.87
2023-03-12T02:07:26.717Z,228.07
2023-03-12T02:08:21.982Z,228.55
2023-03-12T02:09:17.137Z,231.61
2023-03-12T02:10:12.281Z,231.29
2023-03-12T02:11:07.446Z,234.26
2023-03-12T02:12:02.643Z,236.28
2023-03-12T02:12:57.749Z,243.65
2023-03-12T02:13:53.159Z,247.70
2023-03-12T02:14:48.161Z,249.96
2023-03-12T02:15:43.449Z,252.46
2023-03-12T02:16:38.636Z,255.01
2023-03-12T02:17:33.827Z,253.05
2023-03-12T02:18:28.968Z,252.66
2023-03-12T02:19:24.177Z,253.83
2023-03-12T02:20:20.140Z,252.27
2023-03-12T02:21:15.605Z,249.96
2023-03-12T02:22:10.747Z,250.73
2023-03-12T02:23:06.039Z,247.89
2023-03-12T02:24:01.190Z,247.70
2023-03-12T02:24:56.342Z,246.95
2023-03-12T02:25:51.491Z,247.33
2023-03-12T02:26:46.805Z,246.21
2023-03-12T02:27:41.849Z,247.51
2023-03-12T02:28:37.202Z,247.70
2023-03-12T02:29:32.391Z,248.26
2023-03-12T02:30:27.563Z,249.21
2023-03-12T02:31:22.757Z,247.51
2023-03-12T02:32:17.952Z,245.11
2023-03-12T02:33:13.103Z,241.68
2023-03-12T02:34:08.430Z,236.11
2023-03-12T02:35:03.576Z,232.60
2023-03-12T02:35:59.056Z,229.51
2023-03-12T02:36:55.136Z,227.44
2023-03-12T02:37:49.353Z,225.25
2023-03-12T02:38:44.484Z,222.65
2023-03-12T02:39:39.633Z,222.81
2023-03-12T02:40:34.793Z,220.56
2023-03-12T02:41:30.282Z,218.07
2023-03-12T02:42:25.298Z,217.35
2023-03-12T02:43:20.575Z,216.49
2023-03-12T02:44:15.710Z,218.50
2023-03-12T02:45:10.912Z,218.36
2023-03-12T02:46:06.098Z,217.78
2023-03-12T02:47:01.567Z,219.97
2023-03-12T02:47:56.439Z,224.48
2023-03-12T02:48:51.716Z,226.34
2023-03-12T02:49:46.864Z,230.15
2023-03-12T02:50:42.309Z,232.60
2023-03-12T02:51:37.605Z,233.76
2023-03-12T02:52:32.452Z,233.10
2023-03-12T02:53:27.476Z,233.93
2023-03-12T02:54:22.502Z,234.76
2023-03-12T02:55:17.676Z,235.44
2023-03-12T02:56:12.818Z,239.04
2023-03-12T02:57:07.881Z,238.69
2023-03-12T02:58:03.042Z,242.04
2023-03-12T02:58:58.048Z,242.57
2023-03-12T02:59:53.068Z,242.57
2023-03-12T03:00:48.087Z,237.31
2023-03-12T03:01:43.255Z,235.60
2023-03-12T03:02:38.135Z,231.12
2023-03-12T03:03:33.174Z,226.81
2023-03-12T03:04:28.295Z,226.03
2023-03-12T03:05:23.285Z,224.95
2023-03-12T03:06:18.510Z,220.86
2023-03-12T03:07:13.394Z,214.22
2023-03-12T03:08:08.512Z,210.65
2023-03-12T03:09:03.729Z,206.54
2023-03-12T03:09:58.848Z,204.10
2023-03-12T03:10:53.886Z,205.24
2023-03-12T03:11:48.942Z,204.73
2023-03-12T03:12:43.933Z,204.10
2023-03-12T03:13:38.986Z,201.71
2023-03-12T03:14:34.098Z,198.06
2023-03-12T03:15:29.133Z,194.54
2023-03-12T03:16:24.167Z,193.39
2023-03-12T03:17:19.220Z,192.37
2023-03-12T03:18:14.229Z,193.16
2023-03-12T03:19:09.230Z,193.28
2023-03-12T03:20:04.253Z,193.62
2023-03-12T03:20:59.287Z,194.42
2023-03-12T03:21:54.280Z,195.93
2023-03-12T03:22:49.289Z,195.00
2023-03-12T03:23:44.479Z,194.77
2023-03-12T03:24:39.617Z,192.26
2023-03-12T03:25:34.967Z,191.47
2023-03-12T03:26:30.126Z,193.50
2023-03-12T03:27:25.290Z,192.60
2023-03-12T03:28:20.434Z,194.42
2023-03-12T03:29:15.579Z,195.81
2023-03-12T03:30:10.767Z,197.23
2023-03-12T03:31:06.218Z,198.78
2023-03-12T03:32:01.381Z,202.71
2023-03-12T03:32:56.554Z,204.73
2023-03-12T03:33:51.712Z,204.73
2023-03-12T03:34:46.856Z,207.19
2023-03-12T03:35:42.006Z,206.54
2023-03-12T03:36:37.481Z,205.63
2023-03-12T03:37:32.368Z,204.99
2023-03-12T03:38:27.511Z,206.15
2023-03-12T03:39:22.679Z,205.63
2023-03-12T03:40:18.116Z,205.12
2023-03-12T03:41:13.415Z,204.48
2023-03-12T03:42:08.477Z,205.89
2023-03-12T03:43:03.627Z,204.73
2023-03-12T03:43:58.789Z,201.34
2023-03-12T03:44:53.920Z,200.48
2023-03-12T03:45:49.264Z,199.51
2023-03-12T03:46:44.453Z,198.06
2023-03-12T03:47:39.729Z,196.16
2023-03-12T03:48:35.003Z,196.16
2023-03-12T03:49:30.107Z,193.96
2023-03-12T03:50:25.180Z,196.99
2023-03-12T03:51:20.597Z,196.99
2023-03-12T03:52:15.559Z,198.90
2023-03-12T03:53:11.009Z,197.11
2023-03-12T03:54:06.087Z,197.23
2023-03-12T03:55:01.233Z,196.16
2023-03-12T03:55:56.406Z,193.16
2023-03-12T03:56:51.724Z,190.03
2023-03-12T03:57:50.507Z,186.47
2023-03-12T03:58:45.579Z,184.99
2023-03-12T03:59:40.628Z,182.98
2023-03-12T04:00:35.872Z,184.80
2023-03-12T04:01:30.695Z,183.78
2023-03-12T04:02:25.857Z,185.83
2023-03-12T04:03:20.964Z,186.26
2023-03-12T04:04:15.967Z,189.70
2023-03-12T04:05:11.182Z,193.73
2023-03-12T04:06:06.315Z,199.51
2023-03-12T04:07:01.194Z,203.21
2023-03-12T04:07:56.272Z,207.98
2023-03-12T04:08:51.333Z,211.60
2023-03-12T04:09:46.501Z,212.15
2023-03-12T04:10:41.684Z,210.92
2023-03-12T04:11:36.591Z,209.84
2023-03-12T04:12:31.647Z,208.37
2023-03-12T04:13:26.723Z,210.24
2023-03-12T04:14:21.739Z,213.25
2023-03-12T04:15:16.960Z,216.63
2023-03-12T04:16:12.047Z,219.23
2023-03-12T04:17:07.109Z,221.15
2023-03-12T04:18:05.680Z,220.12
2023-03-12T04:19:00.696Z,221.75
2023-03-12T04:19:55.914Z,226.65
2023-03-12T04:20:50.914Z,228.07
2023-03-12T04:21:45.931Z,228.87
2023-03-12T04:22:40.987Z,228.87
2023-03-12T04:23:36.060Z,230.96
2023-03-12T04:24:31.051Z,229.83
2023-03-12T04:25:26.289Z,227.28
2023-03-12T04:26:21.241Z,227.76
2023-03-12T04:27:16.243Z,224.95
2023-03-12T04:28:11.237Z,221.30
2023-03-12T04:29:06.370Z,218.50
2023-03-12T04:30:05.800Z,218.36
2023-03-12T04:31:00.967Z,220.12
2023-03-12T04:31:55.954Z,220.26
2023-03-12T04:32:51.166Z,220.86
2023-03-12T04:33:46.198Z,223.41
2023-03-12T04:34:41.305Z,220.71
2023-03-12T04:35:36.332Z,223.11
2023-03-12T04:36:31.356Z,225.87
2023-03-12T04:37:26.340Z,232.76
2023-03-12T04:38:21.555Z,236.11
2023-03-12T04:39:16.573Z,232.76
2023-03-12T04:40:11.877Z,231.12
2023-03-12T04:41:06.731Z,236.62
2023-03-12T04:42:06.168Z,238.86
2023-03-12T04:43:01.218Z,243.65
2023-03-12T04:43:56.380Z,244.02
2023-03-12T04:44:51.504Z,246.58
2023-03-12T04:45:46.736Z,244.20
2023-03-12T04:46:41.815Z,245.11
2023-03-12T04:47:36.877Z,241.86
2023-03-12T04:48:31.919Z,235.94
2023-03-12T04:49:27.036Z,222.81
2023-03-12T04:50:22.177Z,204.35
2023-03-12T04:51:17.050Z,203.21
2023-03-12T04:52:12.035Z,209.04
2023-03-12T04:53:07.209Z,216.20
2023-03-12T04:54:06.522Z,219.09
2023-03-12T04:55:01.603Z,222.81
2023-03-12T04:55:56.723Z,225.87
2023-03-12T04:56:51.851Z,228.87
2023-03-12T04:57:46.909Z,231.12
2023-03-12T04:58:42.057Z,234.09
2023-03-12T04:59:37.088Z,234.43
2023-03-12T05:00:32.404Z,234.09
2023-03-12T05:01:27.285Z,234.43
2023-03-12T05:02:22.379Z,234.93
2023-03-12T05:03:17.612Z,237.65
2023-03-12T05:04:12.565Z,234.60
2023-03-12T05:05:07.593Z,232.10
2023-03-12T05:06:06.880Z,234.09
2023-03-12T05:07:02.024Z,234.93
2023-03-12T05:07:57.108Z,232.76
2023-03-12T05:08:52.208Z,230.31
2023-03-12T05:09:47.419Z,229.51
2023-03-12T05:10:42.285Z,229.51
2023-03-12T05:11:39.719Z,229.03
2023-03-12T05:12:35.057Z,230.80
2023-03-12T05:13:30.139Z,229.19
2023-03-12T05:14:25.589Z,227.12
2023-03-12T05:15:20.363Z,231.78
2023-03-12T05:16:15.387Z,232.76
2023-03-12T05:17:10.492Z,235.10
2023-03-12T05:18:05.559Z,236.80
2023-03-12T05:19:00.644Z,237.82
2023-03-12T05:19:55.742Z,237.82
2023-03-12T05:20:50.829Z,239.39
2023-03-12T05:21:45.853Z,239.56
2023-03-12T05:22:40.866Z,239.39
2023-03-12T05:23:35.846Z,237.82
2023-03-12T05:24:31.131Z,235.94
2023-03-12T05:25:26.007Z,231.94
2023-03-12T05:26:21.023Z,232.10
2023-03-12T05:27:16.197Z,234.26
2023-03-12T05:28:11.942Z,234.60
2023-03-12T05:29:07.188Z,238.52
2023-03-12T05:30:02.303Z,244.02
2023-03-12T05:30:58.159Z,249.21
2023-03-12T05:31:53.341Z,252.85
2023-03-12T05:32:48.417Z,259.04
2023-03-12T05:33:43.604Z,262.78
2023-03-12T05:34:38.812Z,265.76
2023-03-12T05:35:33.728Z,266.40
2023-03-12T05:36:28.774Z,266.19
2023-03-12T05:37:23.804Z,265.33
2023-03-12T05:38:18.775Z,261.94
2023-03-12T05:39:13.934Z,263.83
2023-03-12T05:40:09.034Z,265.11
2023-03-12T05:41:04.053Z,266.40
2023-03-12T05:41:58.962Z,264.47
2023-03-12T05:42:54.077Z,266.19
2023-03-12T05:43:49.192Z,264.68
2023-03-12T05:44:44.494Z,262.15
2023-03-12T05:45:39.530Z,261.94
2023-03-12T05:46:34.754Z,259.04
2023-03-12T05:47:29.787Z,258.02
2023-03-12T05:48:24.923Z,254.62
2023-03-12T05:49:19.931Z,256.61
2023-03-12T05:50:14.991Z,256.01
2023-03-12T05:51:09.976Z,253.44
2023-03-12T05:52:05.094Z,254.03
2023-03-12T05:53:00.151Z,251.69
2023-03-12T05:53:55.313Z,248.64
2023-03-12T05:54:50.292Z,246.21
2023-03-12T05:55:45.539Z,247.33
2023-03-12T05:56:40.777Z,245.48
2023-03-12T05:57:36.056Z,244.56
2023-03-12T05:58:31.298Z,241.50
2023-03-12T05:59:26.743Z,238.34
2023-03-12T06:00:21.859Z,220.71
2023-03-12T06:01:17.157Z,203.09
2023-03-12T06:02:12.634Z,197.82
2023-03-12T06:03:07.786Z,197.58
2023-03-12T06:04:03.253Z,196.40
2023-03-12T06:04:59.097Z,199.26
2023-03-12T06:05:54.333Z,199.51
2023-03-12T06:06:49.667Z,201.84
2023-03-12T06:07:44.938Z,202.71
2023-03-12T06:08:40.235Z,204.35
2023-03-12T06:09:35.662Z,214.36
2023-03-12T06:10:30.841Z,219.82
2023-03-12T06:11:26.144Z,223.41
2023-03-12T06:12:21.632Z,226.50
2023-03-12T06:13:16.692Z,225.10
2023-03-12T06:14:11.921Z,224.64
2023-03-12T06:15:06.740Z,222.50
2023-03-12T06:16:01.809Z,220.41
2023-03-12T06:16:56.997Z,216.20
2023-03-12T06:17:51.965Z,212.15
2023-03-12T06:18:47.094Z,206.54
2023-03-12T06:19:42.213Z,201.22
2023-03-12T06:20:37.304Z,199.63
2023-03-12T06:21:32.443Z,196.75
2023-03-12T06:22:27.413Z,195.46
2023-03-12T06:23:22.505Z,193.16
2023-03-12T06:24:17.653Z,192.03
2023-03-12T06:25:12.613Z,191.47
2023-03-12T06:26:07.700Z,190.25
2023-03-12T06:27:02.832Z,189.81
2023-03-12T06:27:57.938Z,190.36
2023-03-12T06:28:53.227Z,189.81
2023-03-12T06:29:48.032Z,189.48
2023-03-12T06:30:43.068Z,188.50
2023-03-12T06:31:39.015Z,189.59
2023-03-12T06:32:33.268Z,189.04
2023-03-12T06:33:28.327Z,189.04
2023-03-12T06:34:23.650Z,186.26
2023-03-12T06:35:18.537Z,186.45
2023-03-12T06:36:13.617Z,185.01
2023-03-12T06:37:08.721Z,183.18
2023-03-12T06:38:03.890Z,181.78
2023-03-12T06:38:59.420Z,180.21
2023-03-12T06:39:54.638Z,179.82
2023-03-12T06:40:49.958Z,180.40
2023-03-12T06:41:44.988Z,178.67
2023-03-12T06:42:40.146Z,177.72
2023-03-12T06:43:35.385Z,176.59
2023-03-12T06:44:30.463Z,174.92
2023-03-12T06:45:25.477Z,174.19
2023-03-12T06:46:20.473Z,172.57
2023-03-12T06:47:17.575Z,171.68
2023-03-12T06:48:10.606Z,171.33
2023-03-12T06:49:05.754Z,172.04
2023-03-12T06:50:00.740Z,170.28
2023-03-12T06:50:55.827Z,168.73
2023-03-12T06:51:50.818Z,167.71
2023-03-12T06:52:45.877Z,167.21
2023-03-12T06:53:42.520Z,168.73
2023-03-12T06:54:36.119Z,168.73
2023-03-12T06:55:31.149Z,168.22
2023-03-12T06:56:26.174Z,167.21
2023-03-12T06:57:21.230Z,165.06
2023-03-12T06:58:16.359Z,163.92
2023-03-12T06:59:11.466Z,164.41
2023-03-12T07:00:06.610Z,165.22
2023-03-12T07:01:01.992Z,165.39
2023-03-12T07:01:57.538Z,166.54
2023-03-12T07:02:52.859Z,164.90
2023-03-12T07:03:48.265Z,165.55
2023-03-12T07:04:43.696Z,166.21
2023-03-12T07:05:39.065Z,158.78
2023-03-12T07:06:34.462Z,154.51
2023-03-12T07:07:29.878Z,157.73
2023-03-12T07:08:25.415Z,154.66
2023-03-12T07:09:20.907Z,157.43
2023-03-12T07:10:16.205Z,159.54
2023-03-12T07:11:15.567Z,161.39
2023-03-12T07:12:10.976Z,163.12
2023-03-12T07:13:06.571Z,165.06
2023-03-12T07:14:02.038Z,166.71
2023-03-12T07:14:57.515Z,169.07
2023-03-12T07:15:53.079Z,171.51
2023-03-12T07:16:48.523Z,170.98
2023-03-12T07:17:43.913Z,170.98
2023-03-12T07:18:39.503Z,169.42
2023-03-12T07:19:34.812Z,167.54
2023-03-12T07:20:30.288Z,168.90
2023-03-12T07:21:25.960Z,167.54
2023-03-12T07:22:21.300Z,169.24
2023-03-12T07:23:16.736Z,169.24
2023-03-12T07:24:12.398Z,168.05
2023-03-12T07:25:07.263Z,167.88
2023-03-12T07:26:02.299Z,170.80
2023-03-12T07:26:57.489Z,170.63
2023-03-12T07:27:52.520Z,169.76
2023-03-12T07:28:47.701Z,169.24
2023-03-12T07:29:42.623Z,172.75
2023-03-12T07:30:37.648Z,176.59
2023-03-12T07:31:32.901Z,179.82
2023-03-12T07:32:28.028Z,182.98
2023-03-12T07:33:23.163Z,185.83
2023-03-12T07:34:19.511Z,185.94
2023-03-12T07:35:14.580Z,187.85
2023-03-12T07:36:09.735Z,188.72
2023-03-12T07:37:04.722Z,189.04
2023-03-12T07:38:00.567Z,189.92
2023-03-12T07:38:56.007Z,192.93
2023-03-12T07:39:51.435Z,196.52
2023-03-12T07:40:46.883Z,197.23
2023-03-12T07:41:42.589Z,199.51
2023-03-12T07:42:38.032Z,199.63
2023-03-12T07:43:33.755Z,200.36
2023-03-12T07:44:29.055Z,201.46
2023-03-12T07:45:24.486Z,198.90
2023-03-12T07:46:20.029Z,198.90
2023-03-12T07:47:23.544Z,196.87
2023-03-12T07:48:11.873Z,195.58
2023-03-12T07:49:06.293Z,194.08
2023-03-12T07:50:01.941Z,191.14
2023-03-12T07:50:57.207Z,188.18
2023-03-12T07:51:52.694Z,187.53
2023-03-12T07:52:48.208Z,187.32
2023-03-12T07:53:44.333Z,188.72
2023-03-12T07:54:39.129Z,189.70
2023-03-12T07:55:34.639Z,187.64
2023-03-12T07:56:30.037Z,187.10
2023-03-12T07:57:25.632Z,186.79
2023-03-12T07:58:21.012Z,185.73
2023-03-12T08:00:41.726Z,168.56
2023-03-12T08:01:39.771Z,171.68
2023-03-12T08:02:35.484Z,173.83
2023-03-12T08:03:28.005Z,176.40
2023-03-12T08:04:23.453Z,176.96
2023-03-12T08:05:18.807Z,180.21
2023-03-12T08:06:14.372Z,181.78
2023-03-12T08:07:09.701Z,182.58
2023-03-12T08:08:05.158Z,184.60
2023-03-12T08:09:00.617Z,181.78
2023-03-12T08:09:56.226Z,181.39
2023-03-12T08:10:51.564Z,180.21
2023-03-12T08:11:47.087Z,182.58
2023-03-12T08:12:42.555Z,181.78
2023-03-12T08:13:37.862Z,180.99
2023-03-12T08:14:33.447Z,180.80
2023-03-12T08:15:28.893Z,182.78
2023-03-12T08:16:24.327Z,183.18
2023-03-12T08:17:19.905Z,179.05
2023-03-12T08:18:15.520Z,159.54
2023-03-12T08:19:10.832Z,157.13
2023-03-12T08:20:06.372Z,165.55
2023-03-12T08:21:01.700Z,168.22
2023-03-12T08:21:57.264Z,170.80
2023-03-12T08:22:52.754Z,175.10
2023-03-12T08:23:48.057Z,170.63
2023-03-12T08:24:44.165Z,171.86
2023-03-12T08:25:39.087Z,171.51
2023-03-12T08:26:34.504Z,172.21
2023-03-12T08:27:30.075Z,170.46
2023-03-12T08:28:25.403Z,169.93
2023-03-12T08:29:20.813Z,172.75
2023-03-12T08:30:16.283Z,178.67
2023-03-12T08:31:11.763Z,177.90
2023-03-12T08:32:07.390Z,176.77
2023-03-12T08:33:03.003Z,168.05
2023-03-12T08:33:58.147Z,175.10
2023-03-12T08:34:53.584Z,179.63
2023-03-12T08:35:49.093Z,181.78
2023-03-12T08:36:44.750Z,184.39
2023-03-12T08:37:40.405Z,183.18
2023-03-12T08:38:35.548Z,180.02
2023-03-12T08:39:30.972Z,185.52
2023-03-12T08:40:26.378Z,186.79
2023-03-12T08:41:21.871Z,183.18
2023-03-12T08:42:17.308Z,183.99
2023-03-12T08:43:12.896Z,184.80
2023-03-12T08:44:08.342Z,180.80
2023-03-12T08:45:03.787Z,185.01
2023-03-12T08:45:59.457Z,183.99
2023-03-12T08:46:54.814Z,178.48
2023-03-12T08:47:50.440Z,167.71
2023-03-12T08:48:45.729Z,161.54
2023-03-12T08:49:41.178Z,148.20
2023-03-12T08:50:36.658Z,136.45
2023-03-12T08:51:32.199Z,130.88
2023-03-12T08:52:27.797Z,126.81
2023-03-12T08:53:23.084Z,127.68
2023-03-12T08:54:18.696Z,132.55
2023-03-12T08:55:14.044Z,124.81
2023-03-12T08:56:09.547Z,118.69
2023-03-12T08:57:05.153Z,115.56
2023-03-12T08:58:00.847Z,114.14
2023-03-12T08:58:56.023Z,109.43
2023-03-12T08:59:51.603Z,105.08
2023-03-12T09:00:46.896Z,103.33
2023-03-12T09:01:43.856Z,98.22
2023-03-12T09:02:37.942Z,96.96
2023-03-12T09:03:33.325Z,102.44
2023-03-12T09:04:28.734Z,110.22
2023-03-12T09:05:24.110Z,114.06
2023-03-12T09:06:19.644Z,118.43
2023-03-12T09:07:15.165Z,118.69
2023-03-12T09:08:10.852Z,119.62
2023-03-12T09:09:06.215Z,124.16
2023-03-12T09:10:01.664Z,129.16
2023-03-12T09:10:57.192Z,134.47
2023-03-12T09:11:52.884Z,138.83
2023-03-12T09:12:48.550Z,136.45
2023-03-12T09:14:15.268Z,134.68
2023-03-12T09:15:02.602Z,132.02
2023-03-12T09:15:35.723Z,131.60
2023-03-12T09:16:30.211Z,132.34
2023-03-12T09:17:25.820Z,134.47
2023-03-12T09:18:21.221Z,130.57
2023-03-12T09:19:16.707Z,131.40
2023-03-12T09:20:12.190Z,129.56
2023-03-12T09:21:07.965Z,130.17
2023-03-12T09:22:03.341Z,131.81
2023-03-12T09:22:59.084Z,130.68
2023-03-12T09:23:54.354Z,133.29
2023-03-12T09:24:49.792Z,133.29
2023-03-12T09:25:45.215Z,134.47
2023-03-12T09:26:40.835Z,135.56
2023-03-12T09:27:36.272Z,126.32
2023-03-12T09:28:31.759Z,123.06
2023-03-12T09:29:27.305Z,122.07
2023-03-12T09:30:22.981Z,124.72
2023-03-12T09:31:18.186Z,122.52
2023-03-12T09:32:13.811Z,120.49
2023-03-12T09:33:09.480Z,121.54
2023-03-12T09:34:04.876Z,124.53
2023-03-12T09:35:00.513Z,124.44
2023-03-12T09:35:55.889Z,115.56
2023-03-12T09:36:51.360Z,112.83
2023-03-12T09:37:47.046Z,113.91
2023-03-12T09:38:42.492Z,113.29
2023-03-12T09:39:38.011Z,113.83
2023-03-12T09:40:33.472Z,117.02
2023-03-12T09:41:28.968Z,119.45
2023-03-12T09:42:24.680Z,120.92
2023-03-12T09:43:20.073Z,116.21
2023-03-12T09:44:15.524Z,117.19
2023-03-12T09:45:11.317Z,116.70
2023-03-12T09:46:06.706Z,114.77
2023-03-12T09:47:02.137Z,109.07
2023-03-12T09:47:57.825Z,107.66
2023-03-12T09:48:53.454Z,107.25
2023-03-12T09:49:48.840Z,106.77
2023-03-12T09:50:44.444Z,103.52
2023-03-12T09:51:39.777Z,103.01
2023-03-12T09:52:35.288Z,98.86
2023-03-12T09:53:30.700Z,101.07
2023-03-12T09:54:26.165Z,104.30
2023-03-12T09:55:21.486Z,107.52
2023-03-12T09:56:17.073Z,108.36
2023-03-12T09:57:12.486Z,110.29
2023-03-12T09:58:07.826Z,110.59
2023-03-12T09:59:03.611Z,112.91
2023-03-12T09:59:58.892Z,112.91
2023-03-12T10:00:54.379Z,114.61
2023-03-12T10:01:49.976Z,115.97
2023-03-12T10:02:45.652Z,117.11
2023-03-12T10:03:41.234Z,114.53
2023-03-12T10:04:52.374Z,116.86
2023-03-12T10:05:33.119Z,117.02
2023-03-12T10:06:27.532Z,118.86
2023-03-12T10:07:23.150Z,122.07
2023-03-12T10:08:25.152Z,123.25
2023-03-12T10:09:15.167Z,124.91
2023-03-12T10:10:09.682Z,126.42
2023-03-12T10:11:05.220Z,126.13
2023-03-12T10:12:00.573Z,124.53
2023-03-12T10:12:56.230Z,122.52
2023-03-12T10:13:51.646Z,121.99
2023-03-12T10:14:47.191Z,123.43
2023-03-12T10:15:42.722Z,124.72
2023-03-12T10:16:38.278Z,126.04
2023-03-12T10:17:33.648Z,128.76
2023-03-12T10:18:29.201Z,131.19
2023-03-12T10:19:24.526Z,131.71
2023-03-12T10:20:20.175Z,131.50
2023-03-12T10:21:15.652Z,133.93
2023-03-12T10:22:11.093Z,135.45
2023-03-12T10:23:06.672Z,137.23
2023-03-12T10:24:01.926Z,137.57
2023-03-12T10:24:57.596Z,140.35
2023-03-12T10:25:52.766Z,140.35
2023-03-12T10:26:48.217Z,141.30
2023-03-12T10:27:43.674Z,142.99
2023-03-12T10:28:39.090Z,143.98
2023-03-12T10:29:34.629Z,145.11
2023-03-12T10:30:29.940Z,144.61
2023-03-12T10:31:25.500Z,144.86
2023-03-12T10:32:20.834Z,147.03
2023-03-12T10:33:16.264Z,148.07
2023-03-12T10:34:11.469Z,148.07
2023-03-12T10:35:07.028Z,150.07
2023-03-12T10:36:02.353Z,150.20
2023-03-12T10:36:57.712Z,148.86
2023-03-12T10:37:53.256Z,148.73
2023-03-12T10:38:48.590Z,148.20
2023-03-12T10:39:44.147Z,148.60
2023-03-12T10:40:39.413Z,149.40
2023-03-12T10:41:35.179Z,151.43
2023-03-12T10:42:30.181Z,152.54
2023-03-12T10:43:25.635Z,153.38
2023-03-12T10:44:21.038Z,152.40
2023-03-12T10:45:16.555Z,152.40
2023-03-12T10:46:11.854Z,153.80
2023-03-12T10:47:07.204Z,154.37
2023-03-12T10:48:02.648Z,152.40
2023-03-12T10:48:58.071Z,151.29
2023-03-12T10:49:53.510Z,147.42
2023-03-12T10:50:48.928Z,147.16
2023-03-12T10:51:44.394Z,148.20
2023-03-12T10:52:40.112Z,148.60
2023-03-12T10:53:35.273Z,147.81
2023-03-12T10:54:30.772Z,146.90
2023-03-12T10:55:26.476Z,145.62
2023-03-12T10:56:21.821Z,142.38
2023-03-12T10:57:17.945Z,142.87
2023-03-12T10:58:12.986Z,142.26
2023-03-12T10:59:08.313Z,143.73
2023-03-12T11:00:03.639Z,138.83
2023-03-12T11:00:59.049Z,138.95
2023-03-12T11:01:54.675Z,141.18
2023-03-12T11:02:50.089Z,145.11
2023-03-12T11:03:45.222Z,145.87
2023-03-12T11:04:40.698Z,148.60
2023-03-12T11:05:36.050Z,150.07
2023-03-12T11:06:31.369Z,151.43
2023-03-12T11:07:26.837Z,154.51
2023-03-12T11:08:22.298Z,155.96
2023-03-12T11:09:17.856Z,156.54
2023-03-12T11:10:14.254Z,159.54
2023-03-12T11:11:08.677Z,163.76
2023-03-12T11:12:04.014Z,167.88
2023-03-12T11:12:59.537Z,168.90
2023-03-12T11:13:54.845Z,170.63
2023-03-12T11:14:50.238Z,170.80
2023-03-12T11:15:45.706Z,174.19
2023-03-12T11:16:41.235Z,175.29
2023-03-12T11:17:36.658Z,173.47
2023-03-12T11:18:32.249Z,172.21
2023-03-12T11:19:27.416Z,174.19
2023-03-12T11:20:22.966Z,173.65
2023-03-12T11:21:18.220Z,175.29
2023-03-12T11:22:13.771Z,175.84
2023-03-12T11:23:09.084Z,175.84
2023-03-12T11:24:04.649Z,174.92
2023-03-12T11:24:59.927Z,170.80
2023-03-12T11:25:55.356Z,170.63
2023-03-12T11:26:50.918Z,171.68
2023-03-12T11:27:46.165Z,173.11
2023-03-12T11:28:41.604Z,171.86
2023-03-12T11:29:37.228Z,166.71
2023-03-12T11:30:32.620Z,155.38
2023-03-12T11:31:27.821Z,150.88